CDT,Max TemperatureF,Mean TemperatureF,Min TemperatureF,Max Dew PointF,MeanDew PointF,Min DewpointF,Max Humidity, Mean Humidity, Min Humidity, Max Sea Level PressureIn, Mean Sea Level PressureIn, Min Sea Level PressureIn, Max VisibilityMiles, Mean VisibilityMiles, Min VisibilityMiles, Max Wind SpeedMPH, Mean Wind SpeedMPH, Max Gust SpeedMPH,PrecipitationIn, CloudCover, Events, WindDirDegrees
2012-10-1,70,58,44,50,42,31,80,56,25,30.24,30.16,30.05,10.0,10.0,10.0,21,9,28,0.00,1,Rain,342
2012-10-2,84,60,36,41,35,27,87,48,13,30.15,29.96,29.82,10.0,10.0,10.0,17,8,21,0.00,0,,203
2012-10-3,91,68,45,44,33,13,82,42,6,30.21,29.86,29.75,10.0,9.6,4.0,31,10,43,0.00,1,Rain,240
2012-10-4,56,46,36,34,27,20,77,51,25,30.38,30.30,30.21,10.0,10.0,10.0,23,13,32,0.00,0,,12
2012-10-5,38,36,34,34,31,26,93,80,60,30.36,30.31,30.24,10.0,9.3,1.5,16,8,,0.00,6,Rain-Snow,77
2012-10-6,37,35,33,34,33,32,95,91,84,30.36,30.33,30.29,10.0,6.5,0.8,16,5,16,0.00,8,Rain-Snow,77
2012-10-7,56,44,32,36,28,10,96,65,18,30.33,30.18,30.06,10.0,10.0,10.0,14,4,18,0.00,5,,242
2012-10-8,74,52,30,31,22,3,91,47,6,30.06,29.92,29.81,10.0,10.0,10.0,16,8,21,0.00,0,,221
2012-10-9,57,46,36,39,34,29,86,66,37,30.23,30.03,29.78,10.0,10.0,10.0,20,8,25,0.00,1,,343
2012-10-10,67,48,30,37,32,28,93,63,27,30.24,30.12,29.97,10.0,10.0,10.0,22,9,29,0.00,0,,202
2012-10-11,64,52,39,41,35,30,89,60,30,30.30,30.07,29.92,10.0,10.0,10.0,18,9,24,0.00,0,,10
2012-10-12,60,45,32,39,31,26,82,62,44,30.31,30.16,29.93,10.0,10.0,10.0,24,7,29,0.00,3,,131
2012-10-13,73,58,43,49,42,33,92,59,26,29.93,29.80,29.70,10.0,10.0,10.0,26,11,34,0.00,1,Rain,284
2012-10-14,74,60,46,40,34,27,71,42,17,30.20,30.11,29.95,10.0,10.0,10.0,17,12,26,0.00,1,,294
2012-10-15,82,62,43,38,32,20,74,42,10,30.12,29.95,29.81,10.0,10.0,10.0,14,10,16,0.00,0,,217
2012-10-16,79,61,43,37,32,24,67,37,13,29.84,29.70,29.49,10.0,10.0,10.0,14,7,22,0.00,1,,219
2012-10-17,65,50,35,41,23,10,67,36,15,29.94,29.78,29.56,10.0,10.0,10.0,29,17,44,0.00,3,Rain,319
2012-10-18,59,46,32,22,9,-0,63,26,9,30.02,29.99,29.96,10.0,9.5,7.0,41,18,58,0.00,0,,315
2012-10-19,72,53,34,25,17,10,42,27,12,30.03,29.93,29.79,10.0,10.0,10.0,14,9,20,0.00,0,,270
2012-10-20,86,62,38,26,19,8,61,27,5,29.81,29.73,29.66,10.0,10.0,7.0,18,10,24,0.00,0,,224
2012-10-21,73,57,41,36,30,24,65,38,21,29.86,29.75,29.66,10.0,10.0,7.0,18,12,24,0.00,0,,355
2012-10-22,64,52,39,49,42,35,95,80,56,29.96,29.87,29.76,10.0,7.0,0.2,13,5,,0.00,3,Fog,17
2012-10-23,86,66,45,50,40,11,95,58,6,29.75,29.70,29.65,10.0,7.1,0.2,17,8,16,0.00,3,Fog,152
2012-10-24,59,50,38,49,43,35,93,79,55,29.92,29.82,29.71,10.0,8.1,1.2,22,10,32,0.00,7,Rain,22
2012-10-25,45,37,29,33,28,23,95,76,43,30.34,30.17,29.94,10.0,9.0,2.5,21,14,37,0.00,4,Rain-Snow,2
2012-10-26,40,32,26,28,26,24,94,78,57,30.50,30.41,30.31,10.0,10.0,10.0,9,3,,0.00,6,,73
2012-10-27,51,38,25,29,26,23,92,69,33,30.29,30.18,30.09,10.0,10.0,10.0,20,8,24,0.00,1,,208
2012-10-28,67,50,33,31,26,15,81,51,14,30.17,30.09,29.99,10.0,10.0,10.0,23,8,31,0.00,5,,220
2012-10-29,78,56,35,34,30,24,80,48,14,30.10,30.05,30.00,10.0,10.0,10.0,14,8,16,0.00,1,,251
2012-10-30,75,58,41,35,32,27,71,42,17,30.09,30.04,30.01,10.0,9.9,2.0,14,10,20,0.00,0,,292
2012-10-31,76,58,40,35,30,22,75,45,13,30.09,30.06,30.03,10.0,10.0,10.0,13,7,20,0.00,0,,261